Peckham, Oklahoma
Current Conditions -  °F | °C
As of 6:53 PM on Saturday 22 Nov 2014 (Local Time) from KPNC Reporting Station
Clear Clear  
Wind Chill: 56°   Ceiling: Unl
Heat Index: 56°   Visibility: 10mi
Dew Point: 52°   Wind: 14mph
Humidity: 87%   Direction: 160°SSE
Pressure: 29.75"   Gusts: NA
Location:  36.9105°N, 97.0487°W
Report Text: KPNC 230053Z AUTO 16012KT 10SM CLR 13/11 A2975 RMK AO2 SLP070 T01330111
Loading
Personal Weather Stations






























Interactive Weather Map New forecast layout! Learn more

10-Day Weather Forecast

Advertisements
Track Severe Weather on mobile